createdAt,value
2018-11-29T00:01:27.067Z,37.23
2018-11-29T00:03:58.742Z,38.50
2018-11-29T00:06:47.815Z,38.73
2018-11-29T00:09:20.130Z,36.73
2018-11-29T00:11:51.625Z,40.07
2018-11-29T00:14:23.502Z,38.33
2018-11-29T00:16:54.779Z,37.17
2018-11-29T00:19:26.060Z,37.20
2018-11-29T00:21:58.187Z,35.60
2018-11-29T00:24:30.164Z,32.93
2018-11-29T00:27:01.619Z,37.40
2018-11-29T00:29:32.655Z,35.07
2018-11-29T00:32:04.253Z,35.90
2018-11-29T00:34:35.136Z,37.30
2018-11-29T00:37:07.404Z,37.47
2018-11-29T00:39:38.822Z,38.30
2018-11-29T00:42:12.454Z,38.50
2018-11-29T00:44:44.670Z,35.63
2018-11-29T00:47:15.495Z,36.77
2018-11-29T00:49:47.672Z,34.60
2018-11-29T00:52:19.676Z,33.27
2018-11-29T00:54:51.398Z,37.93
2018-11-29T00:57:22.793Z,37.80
2018-11-29T00:59:54.774Z,35.70
2018-11-29T01:02:27.683Z,37.73
2018-11-29T01:04:59.620Z,36.03
2018-11-29T01:07:31.543Z,37.53
2018-11-29T01:10:02.821Z,39.87
2018-11-29T01:12:34.237Z,35.00
2018-11-29T01:15:07.070Z,35.47
2018-11-29T01:17:39.858Z,35.63
2018-11-29T01:20:15.638Z,36.07
2018-11-29T01:22:47.038Z,38.13
2018-11-29T01:25:18.470Z,39.50
2018-11-29T01:27:50.385Z,38.87
2018-11-29T01:30:21.864Z,36.47
2018-11-29T01:32:53.062Z,34.17
2018-11-29T01:35:24.842Z,42.13
2018-11-29T01:37:56.588Z,37.87
2018-11-29T01:40:28.428Z,37.90
2018-11-29T01:43:00.422Z,40.73
2018-11-29T01:45:32.197Z,38.30
2018-11-29T01:48:04.088Z,44.03
2018-11-29T01:50:35.456Z,37.30
2018-11-29T01:53:07.221Z,40.67
2018-11-29T01:55:37.986Z,39.33
2018-11-29T01:58:10.178Z,37.57
2018-11-29T02:00:41.259Z,43.00
2018-11-29T02:03:14.528Z,41.20
2018-11-29T02:05:45.959Z,37.93
2018-11-29T02:08:17.885Z,40.23
2018-11-29T02:10:50.889Z,39.97
2018-11-29T02:13:22.103Z,45.47
2018-11-29T02:15:52.892Z,42.40
2018-11-29T02:18:24.241Z,41.47
2018-11-29T02:20:55.960Z,43.53
2018-11-29T02:23:27.350Z,43.37
2018-11-29T02:25:58.779Z,38.33
2018-11-29T02:28:31.225Z,41.67
2018-11-29T02:31:02.591Z,42.43
2018-11-29T02:33:34.297Z,40.87
2018-11-29T02:36:05.821Z,39.97
2018-11-29T02:38:37.273Z,42.03
2018-11-29T02:41:08.437Z,38.73
2018-11-29T02:43:40.210Z,39.83
2018-11-29T02:46:11.028Z,40.77
2018-11-29T02:48:43.068Z,41.30
2018-11-29T02:51:14.892Z,44.70
2018-11-29T02:53:46.022Z,41.17
2018-11-29T02:56:16.969Z,42.63
2018-11-29T02:58:48.772Z,39.47
2018-11-29T03:01:19.833Z,41.80
2018-11-29T03:03:51.556Z,41.37
2018-11-29T03:06:23.529Z,43.30
2018-11-29T03:08:54.972Z,41.30
2018-11-29T03:11:25.999Z,40.57
2018-11-29T03:13:57.131Z,42.03
2018-11-29T03:16:29.300Z,41.30
2018-11-29T03:19:01.486Z,43.43
2018-11-29T03:21:34.347Z,39.27
2018-11-29T03:24:07.893Z,40.83
2018-11-29T03:26:39.260Z,41.87
2018-11-29T03:29:11.887Z,41.40
2018-11-29T03:31:44.706Z,39.97
2018-11-29T03:34:17.131Z,38.77
2018-11-29T03:36:48.730Z,37.13
2018-11-29T03:39:21.158Z,38.33
2018-11-29T03:41:52.353Z,39.60
2018-11-29T03:44:23.877Z,44.83
2018-11-29T03:46:55.793Z,38.83
2018-11-29T03:49:27.136Z,41.80
2018-11-29T03:51:58.220Z,37.77
2018-11-29T03:54:30.582Z,38.33
2018-11-29T03:57:02.785Z,40.10
2018-11-29T03:59:35.643Z,40.30
2018-11-29T04:02:07.478Z,39.17
2018-11-29T04:04:40.030Z,40.23
2018-11-29T04:07:11.488Z,41.43
2018-11-29T04:09:42.944Z,40.63
2018-11-29T04:12:15.547Z,38.43
2018-11-29T04:14:47.291Z,47.37
2018-11-29T04:17:19.331Z,40.90
2018-11-29T04:19:51.084Z,43.57
2018-11-29T04:22:22.376Z,43.67
2018-11-29T04:24:54.346Z,43.00
2018-11-29T04:27:26.763Z,45.43
2018-11-29T04:29:58.477Z,43.33
2018-11-29T04:32:30.150Z,41.03
2018-11-29T04:35:01.913Z,41.83
2018-11-29T04:37:34.434Z,41.03
2018-11-29T04:40:06.401Z,43.43
2018-11-29T04:42:37.923Z,35.77
2018-11-29T04:45:10.789Z,38.97
2018-11-29T04:47:42.273Z,38.93
2018-11-29T04:50:14.107Z,43.77
2018-11-29T04:52:46.096Z,36.60
2018-11-29T04:55:17.649Z,39.63
2018-11-29T04:57:49.717Z,41.97
2018-11-29T05:00:21.320Z,40.23
2018-11-29T05:02:52.871Z,37.20
2018-11-29T05:05:25.134Z,33.20
2018-11-29T05:07:56.040Z,36.80
2018-11-29T05:10:28.463Z,36.40
2018-11-29T05:12:59.826Z,39.17
2018-11-29T05:15:31.457Z,37.40
2018-11-29T05:18:02.398Z,39.40
2018-11-29T05:20:33.473Z,34.07
2018-11-29T05:23:05.309Z,33.07
2018-11-29T05:25:37.411Z,31.63
2018-11-29T05:28:09.558Z,31.23
2018-11-29T05:30:41.310Z,31.33
2018-11-29T05:33:12.711Z,32.03
2018-11-29T05:35:44.409Z,33.43
2018-11-29T05:38:17.697Z,33.93
2018-11-29T05:40:49.170Z,33.13
2018-11-29T05:43:21.375Z,31.60
2018-11-29T05:45:53.185Z,31.80
2018-11-29T05:48:25.655Z,32.37
2018-11-29T05:50:56.862Z,27.37
2018-11-29T05:53:28.090Z,29.57
2018-11-29T05:55:59.161Z,31.37
2018-11-29T05:58:31.872Z,28.43
2018-11-29T06:01:09.197Z,29.77
2018-11-29T06:03:41.688Z,29.93
2018-11-29T06:06:13.751Z,26.77
2018-11-29T06:08:44.857Z,31.13
2018-11-29T06:11:15.856Z,27.40
2018-11-29T06:13:47.273Z,26.33
2018-11-29T06:16:19.399Z,27.57
2018-11-29T06:18:51.881Z,25.30
2018-11-29T06:21:23.163Z,27.03
2018-11-29T06:23:54.122Z,26.37
2018-11-29T06:26:25.576Z,24.97
2018-11-29T06:28:57.042Z,25.10
2018-11-29T06:31:28.076Z,24.57
2018-11-29T06:34:00.535Z,23.27
2018-11-29T06:36:33.720Z,23.87
2018-11-29T06:39:06.901Z,23.03
2018-11-29T06:41:38.275Z,27.27
2018-11-29T06:44:09.618Z,22.03
2018-11-29T06:46:41.505Z,26.67
2018-11-29T06:49:12.819Z,24.43
2018-11-29T06:51:44.447Z,23.93
2018-11-29T06:54:16.002Z,26.83
2018-11-29T06:56:47.333Z,23.30
2018-11-29T06:59:19.458Z,24.07
2018-11-29T07:01:50.385Z,24.83
2018-11-29T07:04:22.323Z,25.93
2018-11-29T07:06:54.309Z,22.90
2018-11-29T07:09:25.084Z,24.37
2018-11-29T07:11:58.011Z,21.70
2018-11-29T07:14:29.743Z,21.87
2018-11-29T07:17:01.209Z,23.07
2018-11-29T07:19:53.225Z,22.43
2018-11-29T07:22:47.748Z,22.47
2018-11-29T07:25:24.748Z,26.43
2018-11-29T07:27:56.063Z,22.47
2018-11-29T07:30:27.192Z,21.47
2018-11-29T07:32:58.902Z,20.87
2018-11-29T07:35:31.200Z,19.90
2018-11-29T07:38:03.570Z,22.20
2018-11-29T07:40:35.298Z,21.13
2018-11-29T07:43:06.812Z,19.93
2018-11-29T07:45:39.074Z,23.37
2018-11-29T07:48:10.575Z,19.80
2018-11-29T07:50:41.863Z,22.97
2018-11-29T07:53:15.009Z,24.30
2018-11-29T07:55:46.600Z,24.60
2018-11-29T07:58:18.356Z,20.17
2018-11-29T08:00:50.174Z,21.70
2018-11-29T08:03:21.671Z,23.43
2018-11-29T08:05:54.424Z,22.03
2018-11-29T08:08:25.493Z,22.43
2018-11-29T08:10:56.926Z,24.63
2018-11-29T08:13:28.241Z,23.40
2018-11-29T08:15:59.601Z,23.63
2018-11-29T08:18:30.989Z,22.43
2018-11-29T08:21:02.597Z,23.60
2018-11-29T08:23:35.375Z,23.70
2018-11-29T08:26:06.661Z,24.37
2018-11-29T08:28:37.993Z,25.80
2018-11-29T08:31:09.309Z,25.83
2018-11-29T08:33:41.220Z,26.93
2018-11-29T08:36:12.373Z,25.63
2018-11-29T08:38:43.683Z,23.97
2018-11-29T08:41:15.343Z,24.10
2018-11-29T08:43:46.887Z,25.37
2018-11-29T08:46:18.509Z,25.47
2018-11-29T08:48:49.430Z,25.30
2018-11-29T08:51:20.415Z,24.90
2018-11-29T08:53:51.622Z,26.43
2018-11-29T08:56:22.982Z,25.07
2018-11-29T08:58:54.056Z,26.03
2018-11-29T09:01:26.120Z,26.27
2018-11-29T09:04:01.109Z,25.17
2018-11-29T09:06:32.505Z,25.57
2018-11-29T09:09:03.628Z,24.30
2018-11-29T09:11:43.203Z,25.67
2018-11-29T09:14:14.465Z,27.17
2018-11-29T09:16:46.229Z,24.80
2018-11-29T09:19:17.849Z,26.13
2018-11-29T09:21:48.555Z,24.87
2018-11-29T09:24:19.304Z,28.00
2018-11-29T09:26:50.016Z,25.80
2018-11-29T09:29:20.627Z,24.87
2018-11-29T09:31:51.320Z,25.93
2018-11-29T09:34:21.968Z,25.13
2018-11-29T09:36:52.675Z,25.13
2018-11-29T09:39:23.245Z,24.67
2018-11-29T09:41:53.878Z,22.10
2018-11-29T09:44:24.480Z,24.93
2018-11-29T09:46:55.150Z,23.60
2018-11-29T09:49:25.787Z,26.30
2018-11-29T09:51:56.360Z,27.80
2018-11-29T09:54:32.625Z,25.57
2018-11-29T09:57:03.275Z,25.73
2018-11-29T09:59:33.961Z,23.30
2018-11-29T10:02:04.675Z,25.07
2018-11-29T10:04:35.307Z,24.50
2018-11-29T10:07:06.088Z,24.47
2018-11-29T10:09:36.802Z,22.80
2018-11-29T10:12:07.430Z,21.27
2018-11-29T10:14:38.089Z,22.93
2018-11-29T10:17:08.682Z,21.20
2018-11-29T10:19:39.320Z,23.67
2018-11-29T10:22:09.956Z,24.20
2018-11-29T10:24:40.596Z,20.70
2018-11-29T10:27:11.312Z,21.93
2018-11-29T10:29:42.050Z,21.50
2018-11-29T10:32:12.715Z,20.63
2018-11-29T10:34:43.416Z,18.47
2018-11-29T10:37:14.080Z,19.93
2018-11-29T10:39:44.808Z,19.50
2018-11-29T10:42:15.519Z,20.97
2018-11-29T10:44:46.919Z,18.47
2018-11-29T10:47:17.696Z,18.80
2018-11-29T10:49:48.331Z,18.97
2018-11-29T10:52:18.902Z,18.03
2018-11-29T10:54:49.864Z,17.60
2018-11-29T10:57:20.514Z,16.00
2018-11-29T10:59:51.163Z,16.63
2018-11-29T11:02:26.773Z,14.93
2018-11-29T11:04:57.603Z,16.37
2018-11-29T11:07:29.023Z,16.57
2018-11-29T11:09:59.612Z,16.17
2018-11-29T11:12:30.384Z,14.37
2018-11-29T11:15:01.030Z,18.50
2018-11-29T11:17:31.636Z,15.60
2018-11-29T11:20:02.326Z,14.73
2018-11-29T11:22:33.070Z,17.63
2018-11-29T11:25:03.945Z,14.63
2018-11-29T11:27:34.577Z,18.97
2018-11-29T11:30:09.416Z,15.73
2018-11-29T11:32:39.998Z,14.67
2018-11-29T11:35:10.898Z,14.10
2018-11-29T11:37:41.654Z,13.40
2018-11-29T11:40:14.424Z,14.80
2018-11-29T11:42:45.972Z,13.87
2018-11-29T11:45:17.853Z,14.87
2018-11-29T11:47:48.541Z,14.10
2018-11-29T11:50:20.287Z,11.80
2018-11-29T11:52:51.316Z,15.37
2018-11-29T11:55:21.978Z,13.73
2018-11-29T11:57:52.621Z,12.73
2018-11-29T12:00:24.472Z,14.20
2018-11-29T12:03:08.473Z,12.93
2018-11-29T12:05:39.127Z,12.27
2018-11-29T12:08:09.750Z,12.37
2018-11-29T12:10:41.584Z,13.93
2018-11-29T12:13:12.157Z,12.30
2018-11-29T12:15:42.793Z,12.83
2018-11-29T12:18:14.456Z,12.30
2018-11-29T12:20:45.105Z,12.97
2018-11-29T12:23:15.779Z,13.77
2018-11-29T12:25:46.381Z,11.37
2018-11-29T12:28:17.078Z,15.63
2018-11-29T12:30:49.519Z,15.20
2018-11-29T12:33:20.176Z,15.50
2018-11-29T12:35:50.885Z,13.90
2018-11-29T12:38:21.514Z,14.40
2018-11-29T12:40:52.123Z,12.27
2018-11-29T12:43:22.816Z,13.73
2018-11-29T12:45:53.440Z,13.80
2018-11-29T12:48:25.168Z,11.93
2018-11-29T12:50:55.808Z,14.83
2018-11-29T12:53:26.411Z,12.20
2018-11-29T12:55:57.119Z,12.50
2018-11-29T12:58:27.842Z,13.53
2018-11-29T13:00:58.449Z,14.37
2018-11-29T13:03:29.048Z,12.37
2018-11-29T13:05:59.670Z,12.90
2018-11-29T13:08:30.339Z,12.60
2018-11-29T13:11:01.047Z,13.70
2018-11-29T13:13:31.580Z,14.70
2018-11-29T13:16:02.274Z,12.47
2018-11-29T13:18:33.417Z,12.77
2018-11-29T13:21:04.591Z,11.23
2018-11-29T13:23:35.387Z,12.57
2018-11-29T13:26:06.429Z,11.67
2018-11-29T13:28:37.105Z,12.07
2018-11-29T13:31:07.750Z,12.17
2018-11-29T13:33:38.377Z,13.27
2018-11-29T13:36:08.555Z,14.40
2018-11-29T13:38:39.165Z,12.57
2018-11-29T13:41:09.704Z,13.03
2018-11-29T13:43:41.304Z,13.67
2018-11-29T13:46:11.885Z,14.00
2018-11-29T13:48:42.455Z,10.10
2018-11-29T13:51:13.054Z,13.37
2018-11-29T13:53:43.776Z,11.43
2018-11-29T13:56:14.445Z,11.50
2018-11-29T13:58:45.171Z,10.03
2018-11-29T14:01:15.936Z,9.77
2018-11-29T14:03:46.633Z,10.70
2018-11-29T14:06:17.260Z,10.60
2018-11-29T14:08:47.821Z,11.30
2018-11-29T14:11:18.628Z,8.67
2018-11-29T14:13:49.216Z,9.73
2018-11-29T14:16:19.828Z,11.23
2018-11-29T14:18:50.764Z,9.03
2018-11-29T14:21:21.266Z,10.23
2018-11-29T14:23:51.923Z,10.80
2018-11-29T14:26:22.556Z,9.53
2018-11-29T14:28:53.122Z,9.87
2018-11-29T14:31:23.831Z,10.50
2018-11-29T14:33:54.475Z,10.20
2018-11-29T14:36:25.063Z,9.43
2018-11-29T14:38:55.662Z,11.43
2018-11-29T14:41:26.267Z,12.23
2018-11-29T14:43:56.870Z,9.30
2018-11-29T14:46:27.598Z,8.20
2018-11-29T14:48:58.319Z,8.13
2018-11-29T14:51:28.997Z,8.63
2018-11-29T14:53:59.677Z,9.43
2018-11-29T14:56:30.387Z,9.47
2018-11-29T14:59:01.092Z,8.60
2018-11-29T15:01:31.743Z,10.77
2018-11-29T15:04:02.414Z,7.07
2018-11-29T15:06:33.045Z,7.27
2018-11-29T15:09:04.144Z,8.17
2018-11-29T15:11:34.741Z,9.70
2018-11-29T15:14:05.200Z,7.87
2018-11-29T15:16:35.902Z,8.50
2018-11-29T15:19:06.509Z,9.17
2018-11-29T15:21:37.110Z,9.83
2018-11-29T15:24:07.925Z,7.07
2018-11-29T15:26:38.508Z,7.70
2018-11-29T15:29:09.220Z,9.03
2018-11-29T15:31:39.840Z,8.57
2018-11-29T15:34:10.478Z,9.77
2018-11-29T15:36:41.145Z,7.43
2018-11-29T15:39:11.715Z,8.63
2018-11-29T15:41:42.369Z,7.63
2018-11-29T15:44:12.985Z,8.17
2018-11-29T15:46:43.911Z,7.57
2018-11-29T15:49:14.536Z,8.93
2018-11-29T15:51:45.166Z,9.77
2018-11-29T15:54:15.771Z,8.67
2018-11-29T15:56:46.402Z,7.70
2018-11-29T15:59:16.962Z,9.73
2018-11-29T16:01:47.539Z,10.00
2018-11-29T16:04:19.274Z,8.37
2018-11-29T16:06:49.875Z,9.13
2018-11-29T16:09:20.452Z,8.20
2018-11-29T16:11:51.108Z,9.83
2018-11-29T16:14:21.686Z,8.33
2018-11-29T16:16:52.546Z,9.70
2018-11-29T16:19:23.177Z,10.93
2018-11-29T16:21:53.841Z,13.03
2018-11-29T16:24:25.628Z,11.80
2018-11-29T16:26:56.329Z,10.43
2018-11-29T16:29:26.934Z,11.43
2018-11-29T16:31:57.637Z,11.93
2018-11-29T16:34:28.351Z,11.97
2018-11-29T16:37:00.355Z,10.03
2018-11-29T16:39:31.756Z,9.30
2018-11-29T16:42:04.240Z,12.33
2018-11-29T16:44:36.042Z,12.40
2018-11-29T16:47:07.880Z,15.67
2018-11-29T16:49:39.157Z,14.70
2018-11-29T16:52:10.991Z,13.93
2018-11-29T16:54:41.643Z,12.03
2018-11-29T16:57:12.329Z,12.53
2018-11-29T16:59:42.851Z,13.53
2018-11-29T17:02:13.495Z,13.37
2018-11-29T17:04:44.140Z,12.50
2018-11-29T17:07:24.613Z,15.33
2018-11-29T17:09:56.672Z,15.87
2018-11-29T17:12:27.981Z,15.50
2018-11-29T17:14:58.713Z,14.30
2018-11-29T17:17:30.855Z,12.50
2018-11-29T17:20:01.545Z,15.30
2018-11-29T17:22:32.137Z,14.20
2018-11-29T17:25:02.769Z,13.53
2018-11-29T17:27:33.347Z,14.73
2018-11-29T17:30:04.106Z,17.23
2018-11-29T17:32:35.628Z,19.90
2018-11-29T17:35:08.223Z,13.63
2018-11-29T17:37:41.066Z,13.27
2018-11-29T17:40:13.968Z,16.40
2018-11-29T17:42:47.323Z,14.07
2018-11-29T17:45:20.068Z,17.30
2018-11-29T17:47:52.273Z,15.23
2018-11-29T17:50:24.879Z,16.23
2018-11-29T17:52:56.746Z,15.00
2018-11-29T17:55:27.882Z,15.80
2018-11-29T17:58:00.507Z,16.10
2018-11-29T18:00:33.036Z,16.20
2018-11-29T18:03:03.626Z,14.93
2018-11-29T18:05:36.959Z,16.33
2018-11-29T18:08:08.589Z,16.20
2018-11-29T18:10:40.738Z,16.57
2018-11-29T18:13:15.812Z,18.90
2018-11-29T18:15:46.381Z,22.97
2018-11-29T18:18:21.821Z,15.30
2018-11-29T18:20:53.281Z,18.67
2018-11-29T18:23:23.868Z,19.03
2018-11-29T18:25:55.045Z,18.37
2018-11-29T18:28:27.002Z,22.00
2018-11-29T18:30:58.739Z,22.10
2018-11-29T18:33:29.407Z,20.23
2018-11-29T18:36:00.003Z,21.53
2018-11-29T18:38:30.745Z,22.50
2018-11-29T18:41:01.402Z,20.93
2018-11-29T18:43:32.034Z,20.77
2018-11-29T18:46:02.584Z,20.80
2018-11-29T18:48:34.274Z,21.40
2018-11-29T18:51:05.027Z,20.30
2018-11-29T18:53:36.214Z,22.47
2018-11-29T18:56:06.830Z,22.67
2018-11-29T18:58:37.403Z,25.53
2018-11-29T19:01:08.374Z,25.37
2018-11-29T19:03:39.017Z,26.47
2018-11-29T19:06:09.726Z,28.70
2018-11-29T19:08:40.306Z,33.20
2018-11-29T19:11:10.974Z,33.30
2018-11-29T19:13:41.588Z,39.10
2018-11-29T19:16:12.160Z,38.77
2018-11-29T19:18:42.845Z,37.00
2018-11-29T19:21:13.401Z,35.13
2018-11-29T19:23:44.019Z,36.47
2018-11-29T19:26:14.656Z,33.33
2018-11-29T19:28:45.280Z,28.83
2018-11-29T19:31:15.921Z,24.90
2018-11-29T19:33:46.627Z,26.03
2018-11-29T19:36:17.246Z,22.23
2018-11-29T19:38:47.822Z,22.83
2018-11-29T19:41:19.065Z,21.70
2018-11-29T19:43:49.738Z,21.80
2018-11-29T19:46:20.430Z,21.17
2018-11-29T19:48:51.098Z,21.77
2018-11-29T19:51:21.899Z,21.93
2018-11-29T19:53:52.683Z,18.80
2018-11-29T19:56:23.250Z,19.87
2018-11-29T19:58:53.831Z,21.40
2018-11-29T20:01:24.548Z,20.03
2018-11-29T20:03:55.243Z,21.07
2018-11-29T20:06:25.926Z,22.17
2018-11-29T20:08:56.561Z,21.73
2018-11-29T20:11:27.294Z,22.17
2018-11-29T20:13:57.849Z,21.87
2018-11-29T20:16:28.483Z,22.07
2018-11-29T20:18:59.686Z,19.00
2018-11-29T20:21:30.415Z,20.63
2018-11-29T20:24:01.070Z,23.37
2018-11-29T20:26:32.652Z,25.00
2018-11-29T20:29:03.393Z,20.77
2018-11-29T20:31:33.964Z,21.03
2018-11-29T20:34:04.631Z,23.90
2018-11-29T20:36:35.237Z,22.27
2018-11-29T20:39:08.863Z,23.53
2018-11-29T20:41:39.577Z,20.50
2018-11-29T20:44:10.360Z,22.23
2018-11-29T20:46:40.943Z,21.00
2018-11-29T20:49:11.519Z,21.37
2018-11-29T20:51:42.243Z,22.13
2018-11-29T20:54:12.897Z,19.13
2018-11-29T20:56:43.541Z,19.97
2018-11-29T20:59:26.463Z,19.23
2018-11-29T21:01:58.046Z,21.40
2018-11-29T21:04:43.109Z,20.77
2018-11-29T21:07:16.525Z,21.97
2018-11-29T21:09:48.369Z,19.57
2018-11-29T21:12:24.176Z,21.50
2018-11-29T21:14:55.844Z,20.73
2018-11-29T21:17:28.861Z,20.53
2018-11-29T21:20:00.092Z,22.23
2018-11-29T21:22:31.866Z,21.00
2018-11-29T21:25:02.946Z,21.93
2018-11-29T21:27:34.312Z,22.93
2018-11-29T21:30:06.617Z,24.00
2018-11-29T21:32:37.443Z,21.47
2018-11-29T21:35:08.961Z,22.00
2018-11-29T21:37:39.755Z,24.17
2018-11-29T21:40:15.727Z,21.60
2018-11-29T21:42:46.371Z,24.00
2018-11-29T21:45:17.080Z,23.57
2018-11-29T21:47:47.813Z,22.17
2018-11-29T21:50:18.575Z,25.27
2018-11-29T21:52:49.238Z,23.53
2018-11-29T21:55:19.901Z,22.63
2018-11-29T21:57:50.811Z,22.53
2018-11-29T22:00:22.462Z,25.23
2018-11-29T22:02:56.254Z,24.33
2018-11-29T22:05:26.873Z,24.80
2018-11-29T22:07:57.507Z,22.00
2018-11-29T22:10:28.106Z,24.47
2018-11-29T22:12:58.626Z,25.17
2018-11-29T22:15:29.228Z,24.23
2018-11-29T22:18:12.234Z,24.13
2018-11-29T22:20:42.874Z,22.57
2018-11-29T22:23:13.933Z,25.67
2018-11-29T22:25:44.760Z,21.10
2018-11-29T22:28:15.460Z,21.83
2018-11-29T22:30:46.026Z,23.13
2018-11-29T22:33:22.525Z,24.03
2018-11-29T22:35:53.200Z,24.57
2018-11-29T22:38:23.856Z,23.57
2018-11-29T22:40:54.558Z,25.67
2018-11-29T22:43:25.192Z,24.67
2018-11-29T22:45:55.914Z,25.93
2018-11-29T22:48:26.545Z,25.77
2018-11-29T22:50:57.191Z,22.17
2018-11-29T22:53:27.860Z,26.30
2018-11-29T22:55:58.490Z,25.47
2018-11-29T22:58:29.102Z,24.27
2018-11-29T23:00:59.653Z,26.77
2018-11-29T23:03:30.369Z,24.10
2018-11-29T23:06:01.013Z,23.93
2018-11-29T23:08:31.646Z,26.03
2018-11-29T23:11:02.426Z,24.83
2018-11-29T23:13:33.137Z,26.47
2018-11-29T23:16:03.742Z,24.33
2018-11-29T23:18:34.391Z,23.77
2018-11-29T23:21:05.032Z,21.63
2018-11-29T23:23:35.695Z,24.40
2018-11-29T23:26:06.609Z,23.73
2018-11-29T23:28:37.296Z,24.03
2018-11-29T23:31:07.960Z,22.40
2018-11-29T23:33:38.642Z,23.23
2018-11-29T23:36:09.368Z,23.07
2018-11-29T23:38:39.987Z,24.23
2018-11-29T23:41:10.792Z,25.20
2018-11-29T23:43:41.485Z,24.90
2018-11-29T23:46:12.095Z,23.30
2018-11-29T23:48:42.811Z,24.07
2018-11-29T23:51:13.455Z,21.50
2018-11-29T23:53:44.173Z,25.67
2018-11-29T23:56:14.835Z,21.93
2018-11-29T23:58:45.523Z,23.63
